createdAt,value
2018-12-12T00:00:05.868Z,7.57
2018-12-12T00:00:31.974Z,7.67
2018-12-12T00:00:58.090Z,7.66
2018-12-12T00:01:24.193Z,7.7
2018-12-12T00:01:50.298Z,7.72
2018-12-12T00:02:16.409Z,7.67
2018-12-12T00:02:42.511Z,7.66
2018-12-12T00:03:08.620Z,7.72
2018-12-12T00:03:34.762Z,7.66
2018-12-12T00:04:00.877Z,7.73
2018-12-12T00:04:26.980Z,7.67
2018-12-12T00:04:53.118Z,7.7
2018-12-12T00:05:19.226Z,7.69
2018-12-12T00:05:45.345Z,7.63
2018-12-12T00:06:11.461Z,7.69
2018-12-12T00:06:37.577Z,7.67
2018-12-12T00:07:03.712Z,7.75
2018-12-12T00:07:29.815Z,7.7
2018-12-12T00:07:55.918Z,7.66
2018-12-12T00:08:22.032Z,7.79
2018-12-12T00:08:48.159Z,7.76
2018-12-12T00:09:14.264Z,7.76
2018-12-12T00:09:40.406Z,7.8
2018-12-12T00:10:06.548Z,7.7
2018-12-12T00:10:32.657Z,7.8
2018-12-12T00:10:58.791Z,7.82
2018-12-12T00:11:24.930Z,7.82
2018-12-12T00:11:51.109Z,7.83
2018-12-12T00:12:17.221Z,7.76
2018-12-12T00:12:43.322Z,7.82
2018-12-12T00:13:09.431Z,7.82
2018-12-12T00:13:35.569Z,7.69
2018-12-12T00:14:01.675Z,7.77
2018-12-12T00:14:27.789Z,7.77
2018-12-12T00:14:53.899Z,7.79
2018-12-12T00:15:20.017Z,7.87
2018-12-12T00:15:46.127Z,7.85
2018-12-12T00:16:12.230Z,7.76
2018-12-12T00:16:38.331Z,7.8
2018-12-12T00:17:04.440Z,7.72
2018-12-12T00:17:30.545Z,7.73
2018-12-12T00:17:56.662Z,7.85
2018-12-12T00:18:22.798Z,7.79
2018-12-12T00:18:48.904Z,7.79
2018-12-12T00:19:15.010Z,7.82
2018-12-12T00:19:41.170Z,7.73
2018-12-12T00:20:07.306Z,7.82
2018-12-12T00:20:33.409Z,7.83
2018-12-12T00:20:59.523Z,7.79
2018-12-12T00:21:25.620Z,7.85
2018-12-12T00:21:51.726Z,7.82
2018-12-12T00:22:17.838Z,7.8
2018-12-12T00:22:43.971Z,7.77
2018-12-12T00:23:10.081Z,7.77
2018-12-12T00:23:36.207Z,7.8
2018-12-12T00:24:02.310Z,7.88
2018-12-12T00:24:28.421Z,7.82
2018-12-12T00:24:54.518Z,7.79
2018-12-12T00:25:20.626Z,7.82
2018-12-12T00:25:46.762Z,7.83
2018-12-12T00:26:12.889Z,7.87
2018-12-12T00:26:39.021Z,7.83
2018-12-12T00:27:05.116Z,7.77
2018-12-12T00:27:31.223Z,7.87
2018-12-12T00:27:57.330Z,7.87
2018-12-12T00:28:23.434Z,7.82
2018-12-12T00:28:49.536Z,7.91
2018-12-12T00:29:15.644Z,7.82
2018-12-12T00:29:41.780Z,7.88
2018-12-12T00:30:07.893Z,7.87
2018-12-12T00:30:34.001Z,7.82
2018-12-12T00:31:00.104Z,7.82
2018-12-12T00:31:26.202Z,7.82
2018-12-12T00:31:52.314Z,7.82
2018-12-12T00:32:18.425Z,7.75
2018-12-12T00:32:44.529Z,7.77
2018-12-12T00:33:10.629Z,7.83
2018-12-12T00:33:36.767Z,7.8
2018-12-12T00:34:02.875Z,7.72
2018-12-12T00:34:28.973Z,7.67
2018-12-12T00:34:55.079Z,7.75
2018-12-12T00:35:21.189Z,7.67
2018-12-12T00:35:47.294Z,7.7
2018-12-12T00:36:13.431Z,7.8
2018-12-12T00:36:39.539Z,7.79
2018-12-12T00:37:05.641Z,7.73
2018-12-12T00:37:31.765Z,7.83
2018-12-12T00:37:57.875Z,7.77
2018-12-12T00:38:23.980Z,7.79
2018-12-12T00:38:50.085Z,7.77
2018-12-12T00:39:16.224Z,7.9
2018-12-12T00:39:42.322Z,7.8
2018-12-12T00:40:08.424Z,7.8
2018-12-12T00:40:34.535Z,7.83
2018-12-12T00:41:00.647Z,7.9
2018-12-12T00:41:26.752Z,7.77
2018-12-12T00:41:52.850Z,7.77
2018-12-12T00:42:18.986Z,7.85
2018-12-12T00:42:45.119Z,7.76
2018-12-12T00:43:11.224Z,7.85
2018-12-12T00:43:37.327Z,7.9
2018-12-12T00:44:03.427Z,7.77
2018-12-12T00:44:29.528Z,7.87
2018-12-12T00:44:55.629Z,7.85
2018-12-12T00:45:21.736Z,7.87
2018-12-12T00:45:47.840Z,7.77
2018-12-12T00:46:13.945Z,7.88
2018-12-12T00:46:40.073Z,7.85
2018-12-12T00:47:06.175Z,7.88
2018-12-12T00:47:32.303Z,7.83
2018-12-12T00:47:58.435Z,7.82
2018-12-12T00:48:24.538Z,7.77
2018-12-12T00:48:50.636Z,7.73
2018-12-12T00:49:16.741Z,7.76
2018-12-12T00:49:42.874Z,7.8
2018-12-12T00:50:08.984Z,7.82
2018-12-12T00:50:35.106Z,7.82
2018-12-12T00:51:01.213Z,7.79
2018-12-12T00:51:27.380Z,7.75
2018-12-12T00:51:53.481Z,7.77
2018-12-12T00:52:19.609Z,7.72
2018-12-12T00:52:45.719Z,7.7
2018-12-12T00:53:11.826Z,7.7
2018-12-12T00:53:37.953Z,7.72
2018-12-12T00:54:04.056Z,7.77
2018-12-12T00:54:30.163Z,7.79
2018-12-12T00:54:56.302Z,7.77
2018-12-12T00:55:22.403Z,7.83
2018-12-12T00:55:48.507Z,7.8
2018-12-12T00:56:14.612Z,7.79
2018-12-12T00:56:40.723Z,7.77
2018-12-12T00:57:06.828Z,7.82
2018-12-12T00:57:32.936Z,7.82
2018-12-12T00:57:59.041Z,7.82
2018-12-12T00:58:25.142Z,7.75
2018-12-12T00:58:51.251Z,7.87
2018-12-12T00:59:17.356Z,7.76
2018-12-12T00:59:43.465Z,7.82
2018-12-12T01:00:09.571Z,7.73
2018-12-12T01:00:35.678Z,7.75
2018-12-12T01:01:01.786Z,7.69
2018-12-12T01:01:27.894Z,7.82
2018-12-12T01:01:54.021Z,7.67
2018-12-12T01:02:20.129Z,7.77
2018-12-12T01:02:46.231Z,7.67
2018-12-12T01:03:12.340Z,7.7
2018-12-12T01:03:38.439Z,7.76
2018-12-12T01:04:04.549Z,7.63
2018-12-12T01:04:30.651Z,7.72
2018-12-12T01:04:56.755Z,7.67
2018-12-12T01:05:22.859Z,7.67
2018-12-12T01:05:48.960Z,7.72
2018-12-12T01:06:15.095Z,7.73
2018-12-12T01:06:41.198Z,7.69
2018-12-12T01:07:07.303Z,7.72
2018-12-12T01:07:33.410Z,7.73
2018-12-12T01:07:59.567Z,7.72
2018-12-12T01:08:25.612Z,7.67
2018-12-12T01:08:51.715Z,7.72
2018-12-12T01:09:17.822Z,7.67
2018-12-12T01:09:43.930Z,7.63
2018-12-12T01:10:10.033Z,7.69
2018-12-12T01:10:36.166Z,7.7
2018-12-12T01:11:02.279Z,7.69
2018-12-12T01:11:28.377Z,7.7
2018-12-12T01:11:54.484Z,7.66
2018-12-12T01:12:20.589Z,7.7
2018-12-12T01:12:46.695Z,7.69
2018-12-12T01:13:12.798Z,7.69
2018-12-12T01:13:38.908Z,7.72
2018-12-12T01:14:05.017Z,7.69
2018-12-12T01:14:31.118Z,7.61
2018-12-12T01:14:57.231Z,7.66
2018-12-12T01:15:23.417Z,7.56
2018-12-12T01:15:49.521Z,7.51
2018-12-12T01:16:15.625Z,7.53
2018-12-12T01:16:41.730Z,7.56
2018-12-12T01:17:07.839Z,7.51
2018-12-12T01:17:33.941Z,7.56
2018-12-12T01:18:00.051Z,7.48
2018-12-12T01:18:26.159Z,7.58
2018-12-12T01:18:52.265Z,7.51
2018-12-12T01:19:18.364Z,7.51
2018-12-12T01:19:44.497Z,7.51
2018-12-12T01:20:10.610Z,7.53
2018-12-12T01:20:36.708Z,7.42
2018-12-12T01:21:02.803Z,7.5
2018-12-12T01:21:28.945Z,7.56
2018-12-12T01:21:55.056Z,7.53
2018-12-12T01:22:21.186Z,7.5
2018-12-12T01:22:47.283Z,7.43
2018-12-12T01:23:13.393Z,7.47
2018-12-12T01:23:39.494Z,7.45
2018-12-12T01:24:05.611Z,7.47
2018-12-12T01:24:31.767Z,7.42
2018-12-12T01:24:57.868Z,7.43
2018-12-12T01:25:24.005Z,7.5
2018-12-12T01:25:50.140Z,7.53
2018-12-12T01:26:16.254Z,7.5
2018-12-12T01:26:42.358Z,7.54
2018-12-12T01:27:08.466Z,7.53
2018-12-12T01:27:34.601Z,7.54
2018-12-12T01:28:00.703Z,7.56
2018-12-12T01:28:26.810Z,7.58
2018-12-12T01:28:52.912Z,7.56
2018-12-12T01:29:19.024Z,7.54
2018-12-12T01:29:45.128Z,7.53
2018-12-12T01:30:11.231Z,7.61
2018-12-12T01:30:37.329Z,7.61
2018-12-12T01:31:03.512Z,7.63
2018-12-12T01:31:29.879Z,7.57
2018-12-12T01:31:56.011Z,7.69
2018-12-12T01:32:22.136Z,7.66
2018-12-12T01:32:48.271Z,7.66
2018-12-12T01:33:14.368Z,7.61
2018-12-12T01:33:40.474Z,7.58
2018-12-12T01:34:06.577Z,7.67
2018-12-12T01:34:32.685Z,7.58
2018-12-12T01:34:58.823Z,7.61
2018-12-12T01:35:24.924Z,7.58
2018-12-12T01:35:51.031Z,7.63
2018-12-12T01:36:17.171Z,7.6
2018-12-12T01:36:43.280Z,7.58
2018-12-12T01:37:09.382Z,7.58
2018-12-12T01:37:35.484Z,7.67
2018-12-12T01:38:01.586Z,7.6
2018-12-12T01:38:27.725Z,7.58
2018-12-12T01:38:53.839Z,7.58
2018-12-12T01:39:19.930Z,7.56
2018-12-12T01:39:46.062Z,7.56
2018-12-12T01:40:12.166Z,7.56
2018-12-12T01:40:38.272Z,7.57
2018-12-12T01:41:04.373Z,7.58
2018-12-12T01:41:30.486Z,7.56
2018-12-12T01:41:56.595Z,7.61
2018-12-12T01:42:22.722Z,7.54
2018-12-12T01:42:48.823Z,7.69
2018-12-12T01:43:14.935Z,7.61
2018-12-12T01:43:41.042Z,7.61
2018-12-12T01:44:07.149Z,7.57
2018-12-12T01:44:33.255Z,7.66
2018-12-12T01:44:59.361Z,7.53
2018-12-12T01:45:25.467Z,7.51
2018-12-12T01:45:51.570Z,7.66
2018-12-12T01:46:17.673Z,7.73
2018-12-12T01:46:43.780Z,7.58
2018-12-12T01:47:09.937Z,7.61
2018-12-12T01:47:36.049Z,7.66
2018-12-12T01:48:02.152Z,7.66
2018-12-12T01:48:28.261Z,7.69
2018-12-12T01:48:54.368Z,7.61
2018-12-12T01:49:20.467Z,7.61
2018-12-12T01:49:46.576Z,7.57
2018-12-12T01:50:12.705Z,7.67
2018-12-12T01:50:38.815Z,7.72
2018-12-12T01:51:04.916Z,7.69
2018-12-12T01:51:31.047Z,7.7
2018-12-12T01:51:57.187Z,7.69
2018-12-12T01:52:23.294Z,7.7
2018-12-12T01:52:49.399Z,7.72
2018-12-12T01:53:15.502Z,7.67
2018-12-12T01:53:41.605Z,7.7
2018-12-12T01:54:07.713Z,7.75
2018-12-12T01:54:33.813Z,7.67
2018-12-12T01:54:59.919Z,7.72
2018-12-12T01:55:26.055Z,7.7
2018-12-12T01:55:52.160Z,7.7
2018-12-12T01:56:18.256Z,7.73
2018-12-12T01:56:44.356Z,7.7
2018-12-12T01:57:10.517Z,7.72
2018-12-12T01:57:36.572Z,7.63
2018-12-12T01:58:02.683Z,7.6
2018-12-12T01:58:28.790Z,7.69
2018-12-12T01:58:54.888Z,7.67
2018-12-12T01:59:20.992Z,7.72
2018-12-12T01:59:47.098Z,7.67
2018-12-12T02:00:13.225Z,7.7
2018-12-12T02:00:39.368Z,7.69
2018-12-12T02:01:05.498Z,7.7
2018-12-12T02:01:31.607Z,7.69
2018-12-12T02:01:57.738Z,7.61
2018-12-12T02:02:23.853Z,7.58
2018-12-12T02:02:49.990Z,7.54
2018-12-12T02:03:16.126Z,7.54
2018-12-12T02:03:42.259Z,7.54
2018-12-12T02:04:08.364Z,7.54
2018-12-12T02:04:34.480Z,7.6
2018-12-12T02:05:00.577Z,7.54
2018-12-12T02:05:26.682Z,7.67
2018-12-12T02:05:52.794Z,7.57
2018-12-12T02:06:18.930Z,7.58
2018-12-12T02:06:45.028Z,7.67
2018-12-12T02:07:11.132Z,7.63
2018-12-12T02:07:37.239Z,7.66
2018-12-12T02:08:03.335Z,7.66
2018-12-12T02:08:29.448Z,7.69
2018-12-12T02:08:56.575Z,7.63
2018-12-12T02:09:22.682Z,7.61
2018-12-12T02:09:48.838Z,7.69
2018-12-12T02:10:14.949Z,7.67
2018-12-12T02:10:41.082Z,7.7
2018-12-12T02:11:07.188Z,7.61
2018-12-12T02:11:33.297Z,7.61
2018-12-12T02:11:59.399Z,7.7
2018-12-12T02:12:25.510Z,7.63
2018-12-12T02:12:51.617Z,7.72
2018-12-12T02:13:17.722Z,7.72
2018-12-12T02:13:43.826Z,7.69
2018-12-12T02:14:09.926Z,7.73
2018-12-12T02:14:36.037Z,7.7
2018-12-12T02:15:02.139Z,7.72
2018-12-12T02:15:28.241Z,7.67
2018-12-12T02:15:54.346Z,7.69
2018-12-12T02:16:20.447Z,7.7
2018-12-12T02:16:46.549Z,7.69
2018-12-12T02:17:12.659Z,7.69
2018-12-12T02:17:38.767Z,7.7
2018-12-12T02:18:04.878Z,7.72
2018-12-12T02:18:30.983Z,7.73
2018-12-12T02:18:57.082Z,7.72
2018-12-12T02:19:23.184Z,7.73
2018-12-12T02:19:49.319Z,7.75
2018-12-12T02:20:15.423Z,7.69
2018-12-12T02:20:41.553Z,7.66
2018-12-12T02:21:07.658Z,7.7
2018-12-12T02:21:33.771Z,7.67
2018-12-12T02:21:59.871Z,7.76
2018-12-12T02:22:25.978Z,7.69
2018-12-12T02:22:52.107Z,7.72
2018-12-12T02:23:18.217Z,7.72
2018-12-12T02:23:44.326Z,7.76
2018-12-12T02:24:10.432Z,7.72
2018-12-12T02:24:36.543Z,7.72
2018-12-12T02:25:02.647Z,7.76
2018-12-12T02:25:28.788Z,7.69
2018-12-12T02:25:54.914Z,7.67
2018-12-12T02:26:21.020Z,7.72
2018-12-12T02:26:47.156Z,7.69
2018-12-12T02:27:13.290Z,7.73
2018-12-12T02:27:39.398Z,7.73
2018-12-12T02:28:05.533Z,7.77
2018-12-12T02:28:31.638Z,7.63
2018-12-12T02:28:57.774Z,7.72
2018-12-12T02:29:23.880Z,7.67
2018-12-12T02:29:49.979Z,7.67
2018-12-12T02:30:16.084Z,7.73
2018-12-12T02:30:42.271Z,7.73
2018-12-12T02:31:08.378Z,7.75
2018-12-12T02:31:34.479Z,7.69
2018-12-12T02:32:00.590Z,7.72
2018-12-12T02:32:26.719Z,7.69
2018-12-12T02:32:52.858Z,7.7
2018-12-12T02:33:18.985Z,7.73
2018-12-12T02:33:45.095Z,7.72
2018-12-12T02:34:11.225Z,7.73
2018-12-12T02:34:37.340Z,7.72
2018-12-12T02:35:03.465Z,7.72
2018-12-12T02:35:29.600Z,7.72
2018-12-12T02:35:55.730Z,7.72
2018-12-12T02:36:21.861Z,7.73
2018-12-12T02:36:47.966Z,7.67
2018-12-12T02:37:14.077Z,7.72
2018-12-12T02:37:40.179Z,7.7
2018-12-12T02:38:06.314Z,7.69
2018-12-12T02:38:32.452Z,7.67
2018-12-12T02:38:58.547Z,7.67
2018-12-12T02:39:24.653Z,7.67
2018-12-12T02:39:50.754Z,7.72
2018-12-12T02:40:16.912Z,7.76
2018-12-12T02:40:43.050Z,7.67
2018-12-12T02:41:09.148Z,7.72
2018-12-12T02:41:35.254Z,7.72
2018-12-12T02:42:01.358Z,7.72
2018-12-12T02:42:27.460Z,7.76
2018-12-12T02:42:53.604Z,7.7
2018-12-12T02:43:19.730Z,7.72
2018-12-12T02:43:45.831Z,7.72
2018-12-12T02:44:12.795Z,7.8
2018-12-12T02:44:38.890Z,7.79
2018-12-12T02:45:04.997Z,7.75
2018-12-12T02:45:31.099Z,7.85
2018-12-12T02:45:57.234Z,7.8
2018-12-12T02:46:23.346Z,7.83
2018-12-12T02:46:49.437Z,7.83
2018-12-12T02:47:15.544Z,7.85
2018-12-12T02:47:41.679Z,7.85
2018-12-12T02:48:07.821Z,7.73
2018-12-12T02:48:33.990Z,7.75
2018-12-12T02:49:00.146Z,7.83
2018-12-12T02:49:26.247Z,7.76
2018-12-12T02:49:53.300Z,7.76
2018-12-12T02:50:19.405Z,7.82
2018-12-12T02:50:45.509Z,7.76
2018-12-12T02:51:11.617Z,7.8
2018-12-12T02:51:37.721Z,7.82
2018-12-12T02:52:03.825Z,7.75
2018-12-12T02:52:29.922Z,7.79
2018-12-12T02:52:56.035Z,7.79
2018-12-12T02:53:22.141Z,7.79
2018-12-12T02:53:48.273Z,7.8
2018-12-12T02:54:14.377Z,7.85
2018-12-12T02:54:40.515Z,7.77
2018-12-12T02:55:06.647Z,7.75
2018-12-12T02:55:32.776Z,7.83
2018-12-12T02:55:58.879Z,7.66
2018-12-12T02:56:25.010Z,7.7
2018-12-12T02:56:51.150Z,7.83
2018-12-12T02:57:17.252Z,7.73
2018-12-12T02:57:43.355Z,7.8
2018-12-12T02:58:09.462Z,7.73
2018-12-12T02:58:35.568Z,7.76
2018-12-12T02:59:01.730Z,7.83
2018-12-12T02:59:27.866Z,7.82
2018-12-12T02:59:53.992Z,7.77
2018-12-12T03:00:20.102Z,7.87
2018-12-12T03:00:46.204Z,7.85
2018-12-12T03:01:12.340Z,7.9
2018-12-12T03:01:38.479Z,7.87
2018-12-12T03:02:04.642Z,7.82
2018-12-12T03:02:30.739Z,7.82
2018-12-12T03:02:56.845Z,7.83
2018-12-12T03:03:22.955Z,7.85
2018-12-12T03:03:49.063Z,7.77
2018-12-12T03:04:15.167Z,7.95
2018-12-12T03:04:41.270Z,7.93
2018-12-12T03:05:07.380Z,7.87
2018-12-12T03:05:33.535Z,7.88
2018-12-12T03:05:59.641Z,7.83
2018-12-12T03:06:25.747Z,7.85
2018-12-12T03:06:51.853Z,7.88
2018-12-12T03:07:17.950Z,7.85
2018-12-12T03:07:44.060Z,7.85
2018-12-12T03:08:10.183Z,7.83
2018-12-12T03:08:36.291Z,7.76
2018-12-12T03:09:02.394Z,7.77
2018-12-12T03:09:28.539Z,7.87
2018-12-12T03:09:54.640Z,7.79
2018-12-12T03:10:20.748Z,7.75
2018-12-12T03:10:46.852Z,7.77
2018-12-12T03:11:12.955Z,7.79
2018-12-12T03:11:39.089Z,7.7
2018-12-12T03:12:05.192Z,7.67
2018-12-12T03:12:31.336Z,7.7
2018-12-12T03:12:57.440Z,7.67
2018-12-12T03:13:23.545Z,7.67
2018-12-12T03:13:49.648Z,7.76
2018-12-12T03:14:15.755Z,7.79
2018-12-12T03:14:41.855Z,7.8
2018-12-12T03:15:07.959Z,7.7
2018-12-12T03:15:34.136Z,7.7
2018-12-12T03:16:00.192Z,7.76
2018-12-12T03:16:26.287Z,7.72
2018-12-12T03:16:52.392Z,7.76
2018-12-12T03:17:18.525Z,7.83
2018-12-12T03:17:44.629Z,7.79
2018-12-12T03:18:10.736Z,7.79
2018-12-12T03:18:36.837Z,7.79
2018-12-12T03:19:02.946Z,7.82
2018-12-12T03:19:29.084Z,7.79
2018-12-12T03:19:55.183Z,7.82
2018-12-12T03:20:21.295Z,7.76
2018-12-12T03:20:47.396Z,7.73
2018-12-12T03:21:13.535Z,7.79
2018-12-12T03:21:39.630Z,7.73
2018-12-12T03:22:05.759Z,7.69
2018-12-12T03:22:31.940Z,7.7
2018-12-12T03:22:58.067Z,7.72
2018-12-12T03:23:24.184Z,7.8
2018-12-12T03:23:50.321Z,7.79
2018-12-12T03:24:16.425Z,7.72
2018-12-12T03:24:42.528Z,7.67
2018-12-12T03:25:08.633Z,7.67
2018-12-12T03:25:34.770Z,7.8
2018-12-12T03:26:00.872Z,7.8
2018-12-12T03:26:26.997Z,7.8
2018-12-12T03:26:53.103Z,7.77
2018-12-12T03:27:19.207Z,7.72
2018-12-12T03:27:45.319Z,7.76
2018-12-12T03:28:11.470Z,7.72
2018-12-12T03:28:37.662Z,7.7
2018-12-12T03:29:03.768Z,7.77
2018-12-12T03:29:29.895Z,7.8
2018-12-12T03:29:56.006Z,7.7
2018-12-12T03:30:22.141Z,7.76
2018-12-12T03:30:48.359Z,7.76
2018-12-12T03:31:14.600Z,7.75
2018-12-12T03:31:40.725Z,7.79
2018-12-12T03:32:06.867Z,7.83
2018-12-12T03:32:33.019Z,7.85
2018-12-12T03:32:59.148Z,7.82
2018-12-12T03:33:25.337Z,7.79
2018-12-12T03:33:51.437Z,7.8
2018-12-12T03:34:17.548Z,7.8
2018-12-12T03:34:43.682Z,7.7
2018-12-12T03:35:09.787Z,7.73
2018-12-12T03:35:35.918Z,7.75
2018-12-12T03:36:02.055Z,7.63
2018-12-12T03:36:28.171Z,7.69
2018-12-12T03:36:54.327Z,7.76
2018-12-12T03:37:20.462Z,7.69
2018-12-12T03:37:46.576Z,7.76
2018-12-12T03:38:12.709Z,7.75
2018-12-12T03:38:38.851Z,7.8
2018-12-12T03:39:04.975Z,7.76
2018-12-12T03:39:31.106Z,7.76
2018-12-12T03:39:57.211Z,7.79
2018-12-12T03:40:23.321Z,7.82
2018-12-12T03:40:49.425Z,7.72
2018-12-12T03:41:15.555Z,7.73
2018-12-12T03:41:41.693Z,7.85
2018-12-12T03:42:07.793Z,7.76
2018-12-12T03:42:33.898Z,7.79
2018-12-12T03:42:59.999Z,7.72
2018-12-12T03:43:26.106Z,7.8
2018-12-12T03:43:52.209Z,7.75
2018-12-12T03:44:18.320Z,7.77
2018-12-12T03:44:44.420Z,7.79
2018-12-12T03:45:10.566Z,7.75
2018-12-12T03:45:36.692Z,7.82
2018-12-12T03:46:02.797Z,7.67
2018-12-12T03:46:28.892Z,7.8
2018-12-12T03:46:54.999Z,7.85
2018-12-12T03:47:21.104Z,7.87
2018-12-12T03:47:47.205Z,7.88
2018-12-12T03:48:13.329Z,7.9
2018-12-12T03:48:39.440Z,7.85
2018-12-12T03:49:05.544Z,7.83
2018-12-12T03:49:31.648Z,7.82
2018-12-12T03:49:57.750Z,7.82
2018-12-12T03:50:23.887Z,7.87
2018-12-12T03:50:49.999Z,7.91
2018-12-12T03:51:16.101Z,7.91
2018-12-12T03:51:42.231Z,7.95
2018-12-12T03:52:08.364Z,7.93
2018-12-12T03:52:34.496Z,7.85
2018-12-12T03:53:00.635Z,7.93
2018-12-12T03:53:26.787Z,7.94
2018-12-12T03:53:52.893Z,7.93
2018-12-12T03:54:18.991Z,7.8
2018-12-12T03:54:45.098Z,7.93
2018-12-12T03:55:11.202Z,7.97
2018-12-12T03:55:37.308Z,8
2018-12-12T03:56:03.417Z,7.94
2018-12-12T03:56:29.535Z,7.94
2018-12-12T03:56:55.673Z,7.95
2018-12-12T03:57:21.771Z,7.97
2018-12-12T03:57:47.896Z,7.91
2018-12-12T03:58:13.990Z,7.91
2018-12-12T03:58:40.118Z,8.03
2018-12-12T03:59:06.221Z,7.95
2018-12-12T03:59:32.333Z,7.94
2018-12-12T03:59:58.494Z,7.94
2018-12-12T04:00:24.617Z,7.93
2018-12-12T04:00:50.716Z,8
2018-12-12T04:01:16.818Z,7.94
2018-12-12T04:01:42.930Z,7.97
2018-12-12T04:02:09.083Z,7.97
2018-12-12T04:02:35.246Z,8.01
2018-12-12T04:03:01.387Z,7.95
2018-12-12T04:03:27.545Z,7.98
2018-12-12T04:03:53.647Z,7.95
2018-12-12T04:04:19.780Z,7.98
2018-12-12T04:04:45.923Z,7.98
2018-12-12T04:05:12.053Z,7.93
2018-12-12T04:05:38.188Z,7.98
2018-12-12T04:06:04.293Z,7.97
2018-12-12T04:06:30.484Z,8
2018-12-12T04:06:56.646Z,8
2018-12-12T04:07:22.761Z,7.98
2018-12-12T04:07:48.890Z,7.94
2018-12-12T04:08:14.990Z,8
2018-12-12T04:08:41.097Z,7.93
2018-12-12T04:09:07.232Z,7.97
2018-12-12T04:09:33.338Z,7.97
2018-12-12T04:09:59.570Z,7.93
2018-12-12T04:10:25.679Z,8.03
2018-12-12T04:10:51.782Z,8
2018-12-12T04:11:17.882Z,7.94
2018-12-12T04:11:43.989Z,7.95
2018-12-12T04:12:10.127Z,7.98
2018-12-12T04:12:36.257Z,7.91
2018-12-12T04:13:02.435Z,8.03
2018-12-12T04:13:28.531Z,8
2018-12-12T04:13:54.632Z,7.98
2018-12-12T04:14:20.734Z,7.98
2018-12-12T04:14:46.837Z,7.95
2018-12-12T04:15:12.946Z,8
2018-12-12T04:15:39.046Z,8.03
2018-12-12T04:16:05.172Z,8.05
2018-12-12T04:16:31.279Z,7.94
2018-12-12T04:16:57.383Z,8.03
2018-12-12T04:17:23.494Z,8.05
2018-12-12T04:17:49.598Z,8.01
2018-12-12T04:18:15.710Z,7.95
2018-12-12T04:18:41.818Z,7.95
2018-12-12T04:19:07.945Z,7.95
2018-12-12T04:19:34.055Z,7.95
2018-12-12T04:20:00.189Z,7.98
2018-12-12T04:20:26.320Z,7.98
2018-12-12T04:20:52.440Z,8.01
2018-12-12T04:21:18.594Z,7.95
2018-12-12T04:21:44.731Z,7.95
2018-12-12T04:22:10.887Z,7.95
2018-12-12T04:22:37.000Z,7.95
2018-12-12T04:23:04.656Z,7.97
2018-12-12T04:23:30.290Z,7.94
2018-12-12T04:23:56.423Z,7.94
2018-12-12T04:24:22.553Z,8
2018-12-12T04:24:48.657Z,7.95
2018-12-12T04:25:14.795Z,7.98
2018-12-12T04:25:40.915Z,7.97
2018-12-12T04:26:07.022Z,7.9
2018-12-12T04:26:33.121Z,7.98
2018-12-12T04:26:59.226Z,8
2018-12-12T04:27:25.356Z,7.82
2018-12-12T04:27:51.462Z,7.77
2018-12-12T04:28:17.572Z,7.8
2018-12-12T04:28:43.673Z,7.8
2018-12-12T04:29:09.785Z,7.72
2018-12-12T04:29:35.879Z,7.72
2018-12-12T04:30:01.989Z,7.66
2018-12-12T04:30:28.169Z,7.61
2018-12-12T04:30:54.277Z,7.56
2018-12-12T04:31:20.381Z,7.48
2018-12-12T04:31:46.488Z,7.53
2018-12-12T04:32:12.623Z,7.43
2018-12-12T04:32:38.722Z,7.38
2018-12-12T04:33:04.855Z,7.48
2018-12-12T04:33:30.966Z,7.45
2018-12-12T04:33:57.065Z,7.48
2018-12-12T04:34:24.050Z,7.43
2018-12-12T04:34:50.251Z,7.42
2018-12-12T04:35:16.382Z,7.39
2018-12-12T04:35:42.485Z,7.4
2018-12-12T04:36:08.610Z,7.43
2018-12-12T04:36:34.719Z,7.45
2018-12-12T04:37:00.853Z,7.45
2018-12-12T04:37:26.960Z,7.42
2018-12-12T04:37:53.088Z,7.45
2018-12-12T04:38:19.221Z,7.43
2018-12-12T04:38:45.323Z,7.51
2018-12-12T04:39:11.430Z,7.42
2018-12-12T04:39:37.535Z,7.47
2018-12-12T04:40:03.670Z,7.45
2018-12-12T04:40:29.805Z,7.39
2018-12-12T04:40:55.909Z,7.45
2018-12-12T04:41:22.022Z,7.45
2018-12-12T04:41:48.152Z,7.5
2018-12-12T04:42:14.462Z,7.42
2018-12-12T04:42:40.569Z,7.4
2018-12-12T04:43:06.704Z,7.51
2018-12-12T04:43:32.840Z,7.42
2018-12-12T04:43:58.942Z,7.42
2018-12-12T04:44:25.047Z,7.43
2018-12-12T04:44:51.183Z,7.25
2018-12-12T04:45:17.317Z,7.31
2018-12-12T04:45:43.447Z,7.24
2018-12-12T04:46:09.559Z,7.24
2018-12-12T04:46:35.689Z,7.29
2018-12-12T04:47:01.788Z,7.15
2018-12-12T04:47:27.902Z,7.17
2018-12-12T04:47:55.014Z,7.2
2018-12-12T04:48:21.122Z,7.14
2018-12-12T04:48:47.223Z,7.21
2018-12-12T04:49:13.340Z,7.18
2018-12-12T04:49:39.477Z,7.21
2018-12-12T04:50:05.582Z,7.25
2018-12-12T04:50:31.730Z,7.25
2018-12-12T04:50:57.836Z,7.29
2018-12-12T04:51:23.962Z,7.33
2018-12-12T04:51:50.083Z,7.29
2018-12-12T04:52:16.187Z,7.31
2018-12-12T04:52:42.291Z,7.28
2018-12-12T04:53:08.393Z,7.47
2018-12-12T04:53:34.492Z,7.42
2018-12-12T04:54:00.600Z,7.36
2018-12-12T04:54:26.711Z,7.33
2018-12-12T04:54:52.826Z,7.31
2018-12-12T04:55:18.933Z,7.29
2018-12-12T04:55:45.042Z,7.28
2018-12-12T04:56:11.153Z,7.24
2018-12-12T04:56:37.253Z,7.17
2018-12-12T04:57:03.388Z,7.15
2018-12-12T04:57:29.515Z,7.2
2018-12-12T04:57:55.616Z,7.23
2018-12-12T04:58:21.728Z,7.25
2018-12-12T04:58:47.914Z,7.18
2018-12-12T04:59:14.000Z,7.14
2018-12-12T04:59:40.097Z,7.1
2018-12-12T05:00:06.207Z,7.18
2018-12-12T05:00:32.343Z,7.2
2018-12-12T05:00:58.449Z,7.21
2018-12-12T05:01:24.583Z,7.21
2018-12-12T05:01:50.740Z,7.21
2018-12-12T05:02:16.850Z,7.24
2018-12-12T05:02:42.951Z,7.24
2018-12-12T05:03:09.089Z,7.17
2018-12-12T05:03:35.195Z,7.21
2018-12-12T05:04:01.359Z,7.18
2018-12-12T05:04:27.456Z,7.23
2018-12-12T05:04:53.567Z,7.24
2018-12-12T05:05:19.666Z,7.2
2018-12-12T05:05:45.797Z,7.2
2018-12-12T05:06:11.902Z,7.28
2018-12-12T05:06:38.041Z,7.2
2018-12-12T05:07:04.146Z,7.2
2018-12-12T05:07:30.247Z,7.21
2018-12-12T05:07:56.347Z,7.24
2018-12-12T05:08:22.482Z,7.18
2018-12-12T05:08:48.586Z,7.21
2018-12-12T05:09:14.699Z,7.15
2018-12-12T05:09:40.832Z,7.17
2018-12-12T05:10:06.963Z,7.29
2018-12-12T05:10:33.114Z,7.24
2018-12-12T05:10:59.254Z,7.29
2018-12-12T05:11:25.358Z,7.23
2018-12-12T05:11:51.515Z,7.23
2018-12-12T05:12:17.616Z,7.24
2018-12-12T05:12:43.721Z,7.23
2018-12-12T05:13:09.858Z,7.2
2018-12-12T05:13:35.972Z,7.15
2018-12-12T05:14:02.070Z,7.23
2018-12-12T05:14:28.211Z,7.15
2018-12-12T05:14:54.343Z,7.23
2018-12-12T05:15:20.460Z,7.28
2018-12-12T05:15:46.589Z,7.21
2018-12-12T05:16:12.686Z,7.28
2018-12-12T05:16:38.799Z,7.25
2018-12-12T05:17:04.910Z,7.18
2018-12-12T05:17:31.030Z,7.24
2018-12-12T05:17:57.129Z,7.17
2018-12-12T05:18:23.267Z,7.18
2018-12-12T05:18:49.375Z,7.23
2018-12-12T05:19:15.474Z,7.18
2018-12-12T05:19:42.096Z,7.21
2018-12-12T05:20:08.200Z,7.18
2018-12-12T05:20:34.296Z,7.17
2018-12-12T05:21:00.400Z,7.23
2018-12-12T05:21:26.502Z,7.23
2018-12-12T05:21:52.613Z,7.17
2018-12-12T05:22:18.722Z,7.2
2018-12-12T05:22:44.825Z,7.21
2018-12-12T05:23:10.931Z,7.18
2018-12-12T05:23:37.034Z,7.18
2018-12-12T05:24:03.139Z,7.13
2018-12-12T05:24:29.248Z,7.11
2018-12-12T05:24:55.354Z,7.14
2018-12-12T05:25:21.457Z,7.06
2018-12-12T05:25:47.560Z,7.15
2018-12-12T05:26:13.664Z,7.17
2018-12-12T05:26:39.777Z,7.14
2018-12-12T05:27:05.935Z,7.17
2018-12-12T05:27:32.049Z,7.18
2018-12-12T05:27:58.153Z,7.21
2018-12-12T05:28:24.262Z,7.15
2018-12-12T05:28:50.370Z,7.15
2018-12-12T05:29:16.478Z,7.11
2018-12-12T05:29:42.606Z,7.17
2018-12-12T05:30:08.711Z,7.15
2018-12-12T05:30:34.813Z,7.18
2018-12-12T05:31:00.923Z,7.17
2018-12-12T05:31:27.028Z,7.2
2018-12-12T05:31:54.124Z,7.24
2018-12-12T05:32:20.231Z,7.21
2018-12-12T05:32:46.338Z,7.21
2018-12-12T05:33:12.474Z,7.21
2018-12-12T05:33:38.611Z,7.17
2018-12-12T05:34:04.741Z,7.2
2018-12-12T05:34:30.854Z,7.24
2018-12-12T05:34:56.950Z,7.18
2018-12-12T05:35:23.078Z,7.2
2018-12-12T05:35:49.190Z,7.23
2018-12-12T05:36:15.322Z,7.15
2018-12-12T05:36:41.447Z,7.2
2018-12-12T05:37:07.579Z,7.18
2018-12-12T05:37:33.655Z,7.25
2018-12-12T05:38:01.745Z,7.28
2018-12-12T05:38:27.875Z,7.32
2018-12-12T05:38:54.002Z,7.25
2018-12-12T05:39:20.133Z,7.32
2018-12-12T05:39:46.223Z,7.32
2018-12-12T05:40:12.328Z,7.21
2018-12-12T05:40:38.440Z,7.33
2018-12-12T05:41:04.569Z,7.32
2018-12-12T05:41:30.977Z,7.24
2018-12-12T05:41:57.093Z,7.35
2018-12-12T05:42:23.198Z,7.24
2018-12-12T05:42:49.303Z,7.38
2018-12-12T05:43:15.410Z,7.36
2018-12-12T05:43:41.576Z,7.36
2018-12-12T05:44:08.731Z,7.4
2018-12-12T05:44:34.893Z,7.29
2018-12-12T05:45:01.046Z,7.31
2018-12-12T05:45:27.158Z,7.36
2018-12-12T05:45:53.267Z,7.42
2018-12-12T05:46:19.364Z,7.45
2018-12-12T05:46:45.527Z,7.38
2018-12-12T05:47:11.622Z,7.36
2018-12-12T05:47:37.728Z,7.42
2018-12-12T05:48:03.835Z,7.31
2018-12-12T05:48:29.949Z,7.45
2018-12-12T05:48:56.083Z,7.35
2018-12-12T05:49:22.218Z,7.35